sensor_id;sensor_type;location;lat;lon;timestamp;temperature;humidity
49124;DHT22;48506;48.202;16.274;2022-11-21T00:01:50;4.50;99.90
49124;DHT22;48506;48.202;16.274;2022-11-21T00:04:16;4.50;99.90
49124;DHT22;48506;48.202;16.274;2022-11-21T00:06:42;4.50;99.90
49124;DHT22;48506;48.202;16.274;2022-11-21T00:09:08;4.50;99.90
49124;DHT22;48506;48.202;16.274;2022-11-21T00:11:34;4.50;99.90
49124;DHT22;48506;48.202;16.274;2022-11-21T00:14:00;4.50;99.90
49124;DHT22;48506;48.202;16.274;2022-11-21T00:16:26;4.50;99.90
49124;DHT22;48506;48.202;16.274;2022-11-21T00:18:52;4.50;99.90
49124;DHT22;48506;48.202;16.274;2022-11-21T00:21:19;4.50;99.90
49124;DHT22;48506;48.202;16.274;2022-11-21T00:23:46;4.60;99.90
49124;DHT22;48506;48.202;16.274;2022-11-21T00:26:14;4.60;99.90
49124;DHT22;48506;48.202;16.274;2022-11-21T00:28:40;4.60;99.90
49124;DHT22;48506;48.202;16.274;2022-11-21T00:31:06;4.60;99.90
49124;DHT22;48506;48.202;16.274;2022-11-21T00:33:36;4.60;99.90
49124;DHT22;48506;48.202;16.274;2022-11-21T00:36:09;4.60;99.90
49124;DHT22;48506;48.202;16.274;2022-11-21T00:38:36;4.50;99.90
49124;DHT22;48506;48.202;16.274;2022-11-21T00:41:02;4.40;99.90
49124;DHT22;48506;48.202;16.274;2022-11-21T00:43:27;4.40;99.90
49124;DHT22;48506;48.202;16.274;2022-11-21T00:45:53;4.40;99.90
49124;DHT22;48506;48.202;16.274;2022-11-21T00:48:19;4.40;99.90
49124;DHT22;48506;48.202;16.274;2022-11-21T00:50:48;4.40;99.90
49124;DHT22;48506;48.202;16.274;2022-11-21T00:53:15;4.40;99.90
49124;DHT22;48506;48.202;16.274;2022-11-21T00:55:41;4.40;99.90
49124;DHT22;48506;48.202;16.274;2022-11-21T00:58:07;4.40;99.90
49124;DHT22;48506;48.202;16.274;2022-11-21T01:00:32;4.40;99.90
49124;DHT22;48506;48.202;16.274;2022-11-21T01:02:58;4.40;99.90
49124;DHT22;48506;48.202;16.274;2022-11-21T01:05:25;4.40;99.90
49124;DHT22;48506;48.202;16.274;2022-11-21T01:07:51;4.50;99.90
49124;DHT22;48506;48.202;16.274;2022-11-21T01:10:17;4.40;99.90
49124;DHT22;48506;48.202;16.274;2022-11-21T01:12:43;4.50;99.90
49124;DHT22;48506;48.202;16.274;2022-11-21T01:15:10;4.40;99.90
49124;DHT22;48506;48.202;16.274;2022-11-21T01:17:37;4.40;99.90
49124;DHT22;48506;48.202;16.274;2022-11-21T01:20:03;4.40;99.90
49124;DHT22;48506;48.202;16.274;2022-11-21T01:22:30;4.30;99.90
49124;DHT22;48506;48.202;16.274;2022-11-21T01:24:57;4.40;99.90
49124;DHT22;48506;48.202;16.274;2022-11-21T01:27:23;4.40;99.90
49124;DHT22;48506;48.202;16.274;2022-11-21T01:29:49;4.30;99.90
49124;DHT22;48506;48.202;16.274;2022-11-21T01:32:17;4.30;99.90
49124;DHT22;48506;48.202;16.274;2022-11-21T01:34:43;4.30;99.90
49124;DHT22;48506;48.202;16.274;2022-11-21T01:37:09;4.30;99.90
49124;DHT22;48506;48.202;16.274;2022-11-21T01:39:36;4.20;99.90
49124;DHT22;48506;48.202;16.274;2022-11-21T01:42:02;4.20;99.90
49124;DHT22;48506;48.202;16.274;2022-11-21T01:44:50;4.10;99.90
49124;DHT22;48506;48.202;16.274;2022-11-21T01:47:18;4.10;99.90
49124;DHT22;48506;48.202;16.274;2022-11-21T01:49:46;4.10;99.90
49124;DHT22;48506;48.202;16.274;2022-11-21T01:52:27;4.10;99.90
49124;DHT22;48506;48.202;16.274;2022-11-21T01:55:04;4.20;99.90
49124;DHT22;48506;48.202;16.274;2022-11-21T01:57:45;4.20;99.90
49124;DHT22;48506;48.202;16.274;2022-11-21T02:00:23;4.30;99.90
49124;DHT22;48506;48.202;16.274;2022-11-21T02:02:55;4.30;99.90
49124;DHT22;48506;48.202;16.274;2022-11-21T02:05:29;4.40;99.90
49124;DHT22;48506;48.202;16.274;2022-11-21T02:08:01;4.40;99.90
49124;DHT22;48506;48.202;16.274;2022-11-21T02:10:28;4.40;99.90
49124;DHT22;48506;48.202;16.274;2022-11-21T02:12:55;4.40;99.90
49124;DHT22;48506;48.202;16.274;2022-11-21T02:15:27;4.40;99.90
49124;DHT22;48506;48.202;16.274;2022-11-21T02:17:54;4.30;99.90
49124;DHT22;48506;48.202;16.274;2022-11-21T02:20:22;4.30;99.90
49124;DHT22;48506;48.202;16.274;2022-11-21T02:25:46;4.10;99.90
49124;DHT22;48506;48.202;16.274;2022-11-21T02:28:14;4.00;99.90
49124;DHT22;48506;48.202;16.274;2022-11-21T02:30:42;4.00;99.90
49124;DHT22;48506;48.202;16.274;2022-11-21T02:33:09;3.90;99.90
49124;DHT22;48506;48.202;16.274;2022-11-21T02:35:36;3.90;99.90
49124;DHT22;48506;48.202;16.274;2022-11-21T02:38:21;3.80;99.90
49124;DHT22;48506;48.202;16.274;2022-11-21T02:43:38;3.70;99.90
49124;DHT22;48506;48.202;16.274;2022-11-21T02:46:04;3.70;99.90
49124;DHT22;48506;48.202;16.274;2022-11-21T02:48:30;3.60;99.90
49124;DHT22;48506;48.202;16.274;2022-11-21T02:50:56;3.60;99.90
49124;DHT22;48506;48.202;16.274;2022-11-21T02:53:22;3.60;99.90
49124;DHT22;48506;48.202;16.274;2022-11-21T02:55:48;3.60;99.90
49124;DHT22;48506;48.202;16.274;2022-11-21T02:58:14;3.50;99.90
49124;DHT22;48506;48.202;16.274;2022-11-21T03:00:41;3.50;99.90
49124;DHT22;48506;48.202;16.274;2022-11-21T03:03:07;3.60;99.90
49124;DHT22;48506;48.202;16.274;2022-11-21T03:05:33;3.50;99.90
49124;DHT22;48506;48.202;16.274;2022-11-21T03:07:59;3.60;99.90
49124;DHT22;48506;48.202;16.274;2022-11-21T03:10:25;3.60;99.90
49124;DHT22;48506;48.202;16.274;2022-11-21T03:12:52;3.70;99.90
49124;DHT22;48506;48.202;16.274;2022-11-21T03:15:26;3.70;99.90
49124;DHT22;48506;48.202;16.274;2022-11-21T03:17:54;3.80;99.90
49124;DHT22;48506;48.202;16.274;2022-11-21T03:20:22;3.80;99.90
49124;DHT22;48506;48.202;16.274;2022-11-21T03:22:48;3.80;99.90
49124;DHT22;48506;48.202;16.274;2022-11-21T03:25:15;3.80;99.90
49124;DHT22;48506;48.202;16.274;2022-11-21T03:27:41;3.80;99.90
49124;DHT22;48506;48.202;16.274;2022-11-21T03:30:08;3.90;99.90
49124;DHT22;48506;48.202;16.274;2022-11-21T03:32:34;3.90;99.90
49124;DHT22;48506;48.202;16.274;2022-11-21T03:35:00;4.00;99.90
49124;DHT22;48506;48.202;16.274;2022-11-21T03:37:26;4.10;99.90
49124;DHT22;48506;48.202;16.274;2022-11-21T03:39:52;4.20;99.90
49124;DHT22;48506;48.202;16.274;2022-11-21T03:42:18;4.30;99.90
49124;DHT22;48506;48.202;16.274;2022-11-21T03:44:45;4.40;99.90
49124;DHT22;48506;48.202;16.274;2022-11-21T03:47:10;4.50;99.90
49124;DHT22;48506;48.202;16.274;2022-11-21T03:49:37;4.50;99.90
49124;DHT22;48506;48.202;16.274;2022-11-21T03:52:03;4.50;99.90
49124;DHT22;48506;48.202;16.274;2022-11-21T03:54:29;4.60;99.90
49124;DHT22;48506;48.202;16.274;2022-11-21T03:56:55;4.60;99.90
49124;DHT22;48506;48.202;16.274;2022-11-21T03:59:20;4.50;99.90
49124;DHT22;48506;48.202;16.274;2022-11-21T04:01:46;4.50;99.90
49124;DHT22;48506;48.202;16.274;2022-11-21T04:04:12;4.50;99.90
49124;DHT22;48506;48.202;16.274;2022-11-21T04:06:38;4.50;99.90
49124;DHT22;48506;48.202;16.274;2022-11-21T04:09:04;4.50;99.90
49124;DHT22;48506;48.202;16.274;2022-11-21T04:11:30;4.60;99.90
49124;DHT22;48506;48.202;16.274;2022-11-21T04:13:56;4.50;99.90
49124;DHT22;48506;48.202;16.274;2022-11-21T04:16:22;4.40;99.90
49124;DHT22;48506;48.202;16.274;2022-11-21T04:18:48;4.30;99.90
49124;DHT22;48506;48.202;16.274;2022-11-21T04:21:15;4.30;99.90
49124;DHT22;48506;48.202;16.274;2022-11-21T04:23:41;4.20;99.90
49124;DHT22;48506;48.202;16.274;2022-11-21T04:26:07;4.20;99.90
49124;DHT22;48506;48.202;16.274;2022-11-21T04:28:32;4.30;99.90
49124;DHT22;48506;48.202;16.274;2022-11-21T04:31:03;4.30;99.90
49124;DHT22;48506;48.202;16.274;2022-11-21T04:33:29;4.30;99.90
49124;DHT22;48506;48.202;16.274;2022-11-21T04:35:55;4.30;99.90
49124;DHT22;48506;48.202;16.274;2022-11-21T04:38:21;4.50;99.90
49124;DHT22;48506;48.202;16.274;2022-11-21T04:40:46;4.60;99.90
49124;DHT22;48506;48.202;16.274;2022-11-21T04:43:12;4.70;99.90
49124;DHT22;48506;48.202;16.274;2022-11-21T04:45:38;4.80;99.90
49124;DHT22;48506;48.202;16.274;2022-11-21T04:48:05;4.90;99.90
49124;DHT22;48506;48.202;16.274;2022-11-21T04:50:31;4.90;99.90
49124;DHT22;48506;48.202;16.274;2022-11-21T04:52:57;5.00;99.90
49124;DHT22;48506;48.202;16.274;2022-11-21T04:55:28;5.10;99.90
49124;DHT22;48506;48.202;16.274;2022-11-21T04:57:54;5.20;99.90
49124;DHT22;48506;48.202;16.274;2022-11-21T05:00:20;5.30;99.90
49124;DHT22;48506;48.202;16.274;2022-11-21T05:02:46;5.40;99.90
49124;DHT22;48506;48.202;16.274;2022-11-21T05:05:12;5.40;99.90
49124;DHT22;48506;48.202;16.274;2022-11-21T05:07:39;5.50;99.90
49124;DHT22;48506;48.202;16.274;2022-11-21T05:10:06;5.60;99.90
49124;DHT22;48506;48.202;16.274;2022-11-21T05:12:32;5.60;99.90
49124;DHT22;48506;48.202;16.274;2022-11-21T05:15:17;5.70;99.90
49124;DHT22;48506;48.202;16.274;2022-11-21T05:17:43;5.80;99.90
49124;DHT22;48506;48.202;16.274;2022-11-21T05:20:09;5.80;99.90
49124;DHT22;48506;48.202;16.274;2022-11-21T05:22:36;5.90;99.90
49124;DHT22;48506;48.202;16.274;2022-11-21T05:25:02;5.90;99.90
49124;DHT22;48506;48.202;16.274;2022-11-21T05:27:28;6.00;99.90
49124;DHT22;48506;48.202;16.274;2022-11-21T05:29:54;6.00;99.90
49124;DHT22;48506;48.202;16.274;2022-11-21T05:32:20;6.00;99.90
49124;DHT22;48506;48.202;16.274;2022-11-21T05:34:46;6.10;99.90
49124;DHT22;48506;48.202;16.274;2022-11-21T05:37:12;6.10;99.90
49124;DHT22;48506;48.202;16.274;2022-11-21T05:39:38;6.10;99.90
49124;DHT22;48506;48.202;16.274;2022-11-21T05:42:05;6.10;99.90
49124;DHT22;48506;48.202;16.274;2022-11-21T05:44:31;6.10;99.90
49124;DHT22;48506;48.202;16.274;2022-11-21T05:46:57;6.10;99.90
49124;DHT22;48506;48.202;16.274;2022-11-21T05:49:23;6.10;99.90
49124;DHT22;48506;48.202;16.274;2022-11-21T05:51:49;6.20;99.90
49124;DHT22;48506;48.202;16.274;2022-11-21T05:54:15;6.20;99.90
49124;DHT22;48506;48.202;16.274;2022-11-21T05:56:42;6.10;99.90
49124;DHT22;48506;48.202;16.274;2022-11-21T05:59:11;6.00;99.90
49124;DHT22;48506;48.202;16.274;2022-11-21T06:01:38;6.00;99.90
49124;DHT22;48506;48.202;16.274;2022-11-21T06:04:22;6.00;99.90
49124;DHT22;48506;48.202;16.274;2022-11-21T06:06:49;6.00;99.90
49124;DHT22;48506;48.202;16.274;2022-11-21T06:09:15;6.00;99.90
49124;DHT22;48506;48.202;16.274;2022-11-21T06:11:41;6.00;99.90
49124;DHT22;48506;48.202;16.274;2022-11-21T06:14:07;6.00;99.90
49124;DHT22;48506;48.202;16.274;2022-11-21T06:16:34;6.00;99.90
49124;DHT22;48506;48.202;16.274;2022-11-21T06:19:00;6.10;99.90
49124;DHT22;48506;48.202;16.274;2022-11-21T06:21:28;6.20;99.90
49124;DHT22;48506;48.202;16.274;2022-11-21T06:23:56;6.20;99.90
49124;DHT22;48506;48.202;16.274;2022-11-21T06:26:25;6.20;99.90
49124;DHT22;48506;48.202;16.274;2022-11-21T06:28:53;6.30;99.90
49124;DHT22;48506;48.202;16.274;2022-11-21T06:31:25;6.30;99.90
49124;DHT22;48506;48.202;16.274;2022-11-21T06:33:53;6.40;99.90
49124;DHT22;48506;48.202;16.274;2022-11-21T06:36:20;6.40;99.90
49124;DHT22;48506;48.202;16.274;2022-11-21T06:38:47;6.50;99.90
49124;DHT22;48506;48.202;16.274;2022-11-21T06:41:16;6.50;99.90
49124;DHT22;48506;48.202;16.274;2022-11-21T06:43:44;6.50;99.90
49124;DHT22;48506;48.202;16.274;2022-11-21T06:46:11;6.50;99.90
49124;DHT22;48506;48.202;16.274;2022-11-21T06:48:39;6.50;99.90
49124;DHT22;48506;48.202;16.274;2022-11-21T06:51:17;6.50;99.90
49124;DHT22;48506;48.202;16.274;2022-11-21T06:53:44;6.50;99.90
49124;DHT22;48506;48.202;16.274;2022-11-21T06:56:11;6.50;99.90
49124;DHT22;48506;48.202;16.274;2022-11-21T06:58:38;6.50;99.90
49124;DHT22;48506;48.202;16.274;2022-11-21T07:01:08;6.50;99.90
49124;DHT22;48506;48.202;16.274;2022-11-21T07:03:35;6.50;99.90
49124;DHT22;48506;48.202;16.274;2022-11-21T07:06:05;6.50;99.90
49124;DHT22;48506;48.202;16.274;2022-11-21T07:08:33;6.50;99.90
49124;DHT22;48506;48.202;16.274;2022-11-21T07:11:08;6.60;99.90
49124;DHT22;48506;48.202;16.274;2022-11-21T07:13:36;6.60;99.90
49124;DHT22;48506;48.202;16.274;2022-11-21T07:16:08;6.70;99.90
49124;DHT22;48506;48.202;16.274;2022-11-21T07:18:35;6.80;99.90
49124;DHT22;48506;48.202;16.274;2022-11-21T07:21:04;6.80;99.90
49124;DHT22;48506;48.202;16.274;2022-11-21T07:23:31;6.90;99.90
49124;DHT22;48506;48.202;16.274;2022-11-21T07:26:00;7.00;99.90
49124;DHT22;48506;48.202;16.274;2022-11-21T07:28:28;7.00;99.90
49124;DHT22;48506;48.202;16.274;2022-11-21T07:30:57;7.10;99.90
49124;DHT22;48506;48.202;16.274;2022-11-21T07:33:24;7.00;99.90
49124;DHT22;48506;48.202;16.274;2022-11-21T07:35:51;7.10;99.90
49124;DHT22;48506;48.202;16.274;2022-11-21T07:38:18;7.10;99.90
49124;DHT22;48506;48.202;16.274;2022-11-21T07:40:44;7.20;99.90
49124;DHT22;48506;48.202;16.274;2022-11-21T07:43:10;7.20;99.90
49124;DHT22;48506;48.202;16.274;2022-11-21T07:45:37;7.20;99.90
49124;DHT22;48506;48.202;16.274;2022-11-21T07:48:05;7.30;99.90
49124;DHT22;48506;48.202;16.274;2022-11-21T07:50:32;7.40;99.90
49124;DHT22;48506;48.202;16.274;2022-11-21T07:53:06;7.50;99.90
49124;DHT22;48506;48.202;16.274;2022-11-21T07:55:34;7.50;99.90
49124;DHT22;48506;48.202;16.274;2022-11-21T07:58:09;7.60;99.90
49124;DHT22;48506;48.202;16.274;2022-11-21T08:00:38;7.70;99.90
49124;DHT22;48506;48.202;16.274;2022-11-21T08:03:05;7.70;99.80
49124;DHT22;48506;48.202;16.274;2022-11-21T08:05:39;7.80;99.90
49124;DHT22;48506;48.202;16.274;2022-11-21T08:08:06;7.90;99.90
49124;DHT22;48506;48.202;16.274;2022-11-21T08:10:32;7.90;99.70
49124;DHT22;48506;48.202;16.274;2022-11-21T08:12:59;8.00;99.80
49124;DHT22;48506;48.202;16.274;2022-11-21T08:15:26;8.10;99.70
49124;DHT22;48506;48.202;16.274;2022-11-21T08:17:52;8.10;99.50
49124;DHT22;48506;48.202;16.274;2022-11-21T08:20:19;8.20;99.50
49124;DHT22;48506;48.202;16.274;2022-11-21T08:22:45;8.30;99.20
49124;DHT22;48506;48.202;16.274;2022-11-21T08:25:12;8.30;99.20
49124;DHT22;48506;48.202;16.274;2022-11-21T08:27:39;8.30;99.10
49124;DHT22;48506;48.202;16.274;2022-11-21T08:30:07;8.50;98.80
49124;DHT22;48506;48.202;16.274;2022-11-21T08:32:33;8.50;98.30
49124;DHT22;48506;48.202;16.274;2022-11-21T08:35:01;8.60;98.50
49124;DHT22;48506;48.202;16.274;2022-11-21T08:37:27;8.60;98.50
49124;DHT22;48506;48.202;16.274;2022-11-21T08:39:55;8.70;98.60
49124;DHT22;48506;48.202;16.274;2022-11-21T08:42:24;8.80;98.50
49124;DHT22;48506;48.202;16.274;2022-11-21T08:44:50;8.80;98.40
49124;DHT22;48506;48.202;16.274;2022-11-21T08:47:18;8.80;98.30
49124;DHT22;48506;48.202;16.274;2022-11-21T08:49:46;8.90;98.00
49124;DHT22;48506;48.202;16.274;2022-11-21T08:52:14;8.90;98.10
49124;DHT22;48506;48.202;16.274;2022-11-21T08:54:42;8.90;97.60
49124;DHT22;48506;48.202;16.274;2022-11-21T08:57:11;8.90;97.60
49124;DHT22;48506;48.202;16.274;2022-11-21T08:59:39;8.90;97.90
49124;DHT22;48506;48.202;16.274;2022-11-21T09:02:05;9.00;97.40
49124;DHT22;48506;48.202;16.274;2022-11-21T09:04:31;9.10;96.90
49124;DHT22;48506;48.202;16.274;2022-11-21T09:06:58;9.10;96.50
49124;DHT22;48506;48.202;16.274;2022-11-21T09:09:24;9.20;96.30
49124;DHT22;48506;48.202;16.274;2022-11-21T09:11:51;9.20;95.90
49124;DHT22;48506;48.202;16.274;2022-11-21T09:14:18;9.30;95.80
49124;DHT22;48506;48.202;16.274;2022-11-21T09:17:03;9.30;95.90
49124;DHT22;48506;48.202;16.274;2022-11-21T09:19:48;9.40;96.00
49124;DHT22;48506;48.202;16.274;2022-11-21T09:22:16;9.50;95.60
49124;DHT22;48506;48.202;16.274;2022-11-21T09:24:42;9.50;94.90
49124;DHT22;48506;48.202;16.274;2022-11-21T09:27:07;9.60;95.40
49124;DHT22;48506;48.202;16.274;2022-11-21T09:29:34;9.80;95.60
49124;DHT22;48506;48.202;16.274;2022-11-21T09:32:00;10.00;94.60
49124;DHT22;48506;48.202;16.274;2022-11-21T09:34:27;10.10;93.90
49124;DHT22;48506;48.202;16.274;2022-11-21T09:36:53;10.10;93.00
49124;DHT22;48506;48.202;16.274;2022-11-21T09:39:20;10.10;92.60
49124;DHT22;48506;48.202;16.274;2022-11-21T09:47:20;10.20;92.40
49124;DHT22;48506;48.202;16.274;2022-11-21T09:52:37;10.40;92.30
49124;DHT22;48506;48.202;16.274;2022-11-21T09:58:05;10.50;92.70
49124;DHT22;48506;48.202;16.274;2022-11-21T10:00:36;10.60;91.70
49124;DHT22;48506;48.202;16.274;2022-11-21T10:03:02;10.60;91.80
49124;DHT22;48506;48.202;16.274;2022-11-21T10:05:40;10.70;91.30
49124;DHT22;48506;48.202;16.274;2022-11-21T10:25:38;11.50;89.40
49124;DHT22;48506;48.202;16.274;2022-11-21T10:28:37;11.40;90.30
49124;DHT22;48506;48.202;16.274;2022-11-21T10:31:09;11.40;89.20
49124;DHT22;48506;48.202;16.274;2022-11-21T10:33:36;11.30;89.40
49124;DHT22;48506;48.202;16.274;2022-11-21T10:38:53;11.20;90.00
49124;DHT22;48506;48.202;16.274;2022-11-21T10:44:07;11.00;88.60
49124;DHT22;48506;48.202;16.274;2022-11-21T10:46:59;10.90;89.90
49124;DHT22;48506;48.202;16.274;2022-11-21T10:49:27;10.70;90.30
49124;DHT22;48506;48.202;16.274;2022-11-21T10:52:08;10.60;90.30
49124;DHT22;48506;48.202;16.274;2022-11-21T10:55:01;10.60;90.10
49124;DHT22;48506;48.202;16.274;2022-11-21T10:57:30;10.50;90.40
49124;DHT22;48506;48.202;16.274;2022-11-21T11:00:04;10.30;91.00
49124;DHT22;48506;48.202;16.274;2022-11-21T11:02:41;10.30;91.00
49124;DHT22;48506;48.202;16.274;2022-11-21T11:05:23;10.20;90.90
49124;DHT22;48506;48.202;16.274;2022-11-21T11:08:08;10.30;90.70
49124;DHT22;48506;48.202;16.274;2022-11-21T11:10:42;10.20;91.30
49124;DHT22;48506;48.202;16.274;2022-11-21T11:13:17;10.10;91.20
49124;DHT22;48506;48.202;16.274;2022-11-21T11:16:04;10.10;91.40
49124;DHT22;48506;48.202;16.274;2022-11-21T11:18:33;10.00;91.20
49124;DHT22;48506;48.202;16.274;2022-11-21T11:21:30;9.90;91.50
49124;DHT22;48506;48.202;16.274;2022-11-21T11:29:14;9.90;92.30
49124;DHT22;48506;48.202;16.274;2022-11-21T11:31:43;9.80;92.50
49124;DHT22;48506;48.202;16.274;2022-11-21T11:34:12;9.80;92.60
49124;DHT22;48506;48.202;16.274;2022-11-21T11:39:32;9.70;93.20
49124;DHT22;48506;48.202;16.274;2022-11-21T11:48:18;9.70;92.80
49124;DHT22;48506;48.202;16.274;2022-11-21T11:50:59;9.70;92.90
49124;DHT22;48506;48.202;16.274;2022-11-21T11:53:30;9.70;92.90
49124;DHT22;48506;48.202;16.274;2022-11-21T11:56:15;9.80;93.00
49124;DHT22;48506;48.202;16.274;2022-11-21T11:58:58;10.00;92.80
49124;DHT22;48506;48.202;16.274;2022-11-21T12:01:38;10.10;92.70
49124;DHT22;48506;48.202;16.274;2022-11-21T12:04:18;10.20;92.00
49124;DHT22;48506;48.202;16.274;2022-11-21T12:07:05;10.20;92.40
49124;DHT22;48506;48.202;16.274;2022-11-21T12:09:47;10.20;91.80
49124;DHT22;48506;48.202;16.274;2022-11-21T12:12:31;10.20;92.20
49124;DHT22;48506;48.202;16.274;2022-11-21T12:23:31;9.90;92.50
49124;DHT22;48506;48.202;16.274;2022-11-21T12:31:23;9.80;92.10
49124;DHT22;48506;48.202;16.274;2022-11-21T12:34:02;9.70;92.50
49124;DHT22;48506;48.202;16.274;2022-11-21T12:36:49;9.60;92.60
49124;DHT22;48506;48.202;16.274;2022-11-21T12:41:56;9.60;92.60
49124;DHT22;48506;48.202;16.274;2022-11-21T12:45:00;9.60;92.50
49124;DHT22;48506;48.202;16.274;2022-11-21T12:48:00;9.50;92.60
49124;DHT22;48506;48.202;16.274;2022-11-21T13:05:12;9.30;92.90
49124;DHT22;48506;48.202;16.274;2022-11-21T13:07:39;9.30;93.00
49124;DHT22;48506;48.202;16.274;2022-11-21T13:10:13;9.70;92.70
49124;DHT22;48506;48.202;16.274;2022-11-21T13:12:50;10.60;92.10
49124;DHT22;48506;48.202;16.274;2022-11-21T13:15:18;11.70;91.10
49124;DHT22;48506;48.202;16.274;2022-11-21T13:17:57;13.10;90.50
49124;DHT22;48506;48.202;16.274;2022-11-21T13:20:29;14.50;85.40
49124;DHT22;48506;48.202;16.274;2022-11-21T13:23:00;16.00;81.70
49124;DHT22;48506;48.202;16.274;2022-11-21T13:30:48;16.90;73.20
49124;DHT22;48506;48.202;16.274;2022-11-21T13:36:12;14.10;78.40
49124;DHT22;48506;48.202;16.274;2022-11-21T13:47:00;11.30;87.10
49124;DHT22;48506;48.202;16.274;2022-11-21T13:55:07;10.60;89.50
49124;DHT22;48506;48.202;16.274;2022-11-21T14:12:01;10.00;91.30
49124;DHT22;48506;48.202;16.274;2022-11-21T14:14:32;10.00;91.60
49124;DHT22;48506;48.202;16.274;2022-11-21T14:17:21;9.90;91.60
49124;DHT22;48506;48.202;16.274;2022-11-21T14:19:53;9.90;91.70
49124;DHT22;48506;48.202;16.274;2022-11-21T14:22:31;9.90;92.00
49124;DHT22;48506;48.202;16.274;2022-11-21T14:25:04;10.10;91.80
49124;DHT22;48506;48.202;16.274;2022-11-21T14:27:36;10.20;91.90
49124;DHT22;48506;48.202;16.274;2022-11-21T14:30:05;10.40;91.90
49124;DHT22;48506;48.202;16.274;2022-11-21T14:32:31;10.50;91.00
49124;DHT22;48506;48.202;16.274;2022-11-21T14:35:20;10.50;91.20
49124;DHT22;48506;48.202;16.274;2022-11-21T14:37:47;10.50;91.00
49124;DHT22;48506;48.202;16.274;2022-11-21T14:40:21;10.30;91.20
49124;DHT22;48506;48.202;16.274;2022-11-21T14:42:49;10.10;91.50
49124;DHT22;48506;48.202;16.274;2022-11-21T14:45:20;10.00;91.70
49124;DHT22;48506;48.202;16.274;2022-11-21T14:47:51;9.90;91.80
49124;DHT22;48506;48.202;16.274;2022-11-21T14:50:32;9.80;92.00
49124;DHT22;48506;48.202;16.274;2022-11-21T14:53:00;9.60;92.00
49124;DHT22;48506;48.202;16.274;2022-11-21T14:55:30;9.50;92.20
49124;DHT22;48506;48.202;16.274;2022-11-21T14:57:59;9.40;92.40
49124;DHT22;48506;48.202;16.274;2022-11-21T15:00:28;9.40;92.50
49124;DHT22;48506;48.202;16.274;2022-11-21T15:02:57;9.30;92.60
49124;DHT22;48506;48.202;16.274;2022-11-21T15:05:33;9.20;92.80
49124;DHT22;48506;48.202;16.274;2022-11-21T15:08:00;9.10;93.00
49124;DHT22;48506;48.202;16.274;2022-11-21T15:10:31;9.00;93.10
49124;DHT22;48506;48.202;16.274;2022-11-21T15:13:06;8.90;93.20
49124;DHT22;48506;48.202;16.274;2022-11-21T15:15:43;8.80;93.40
49124;DHT22;48506;48.202;16.274;2022-11-21T15:18:22;8.70;93.50
49124;DHT22;48506;48.202;16.274;2022-11-21T15:20:52;8.70;93.60
49124;DHT22;48506;48.202;16.274;2022-11-21T15:23:33;8.60;93.80
49124;DHT22;48506;48.202;16.274;2022-11-21T15:26:01;8.50;93.70
49124;DHT22;48506;48.202;16.274;2022-11-21T15:28:28;8.50;93.80
49124;DHT22;48506;48.202;16.274;2022-11-21T15:31:15;8.40;94.00
49124;DHT22;48506;48.202;16.274;2022-11-21T15:33:57;8.40;94.10
49124;DHT22;48506;48.202;16.274;2022-11-21T15:36:23;8.30;94.20
49124;DHT22;48506;48.202;16.274;2022-11-21T15:39:10;8.20;94.20
49124;DHT22;48506;48.202;16.274;2022-11-21T15:41:38;8.10;94.30
49124;DHT22;48506;48.202;16.274;2022-11-21T15:46:34;8.00;94.50
49124;DHT22;48506;48.202;16.274;2022-11-21T15:49:10;8.00;94.60
49124;DHT22;48506;48.202;16.274;2022-11-21T15:51:40;7.90;94.70
49124;DHT22;48506;48.202;16.274;2022-11-21T15:54:10;7.90;95.00
49124;DHT22;48506;48.202;16.274;2022-11-21T15:56:36;7.80;95.00
49124;DHT22;48506;48.202;16.274;2022-11-21T15:59:02;7.70;95.00
49124;DHT22;48506;48.202;16.274;2022-11-21T16:01:29;7.70;95.10
49124;DHT22;48506;48.202;16.274;2022-11-21T16:03:59;7.70;95.10
49124;DHT22;48506;48.202;16.274;2022-11-21T16:06:27;7.70;95.20
49124;DHT22;48506;48.202;16.274;2022-11-21T16:08:53;7.60;95.20
49124;DHT22;48506;48.202;16.274;2022-11-21T16:11:22;7.50;95.20
49124;DHT22;48506;48.202;16.274;2022-11-21T16:13:51;7.50;95.30
49124;DHT22;48506;48.202;16.274;2022-11-21T16:16:20;7.40;95.30
49124;DHT22;48506;48.202;16.274;2022-11-21T16:18:46;7.30;95.40
49124;DHT22;48506;48.202;16.274;2022-11-21T16:21:14;7.30;95.30
49124;DHT22;48506;48.202;16.274;2022-11-21T16:23:40;7.30;95.40
49124;DHT22;48506;48.202;16.274;2022-11-21T16:26:08;7.20;95.50
49124;DHT22;48506;48.202;16.274;2022-11-21T16:28:36;7.10;95.50
49124;DHT22;48506;48.202;16.274;2022-11-21T16:31:03;7.10;95.60
49124;DHT22;48506;48.202;16.274;2022-11-21T16:33:32;7.00;95.60
49124;DHT22;48506;48.202;16.274;2022-11-21T16:35:59;6.90;95.70
49124;DHT22;48506;48.202;16.274;2022-11-21T16:38:28;6.80;95.80
49124;DHT22;48506;48.202;16.274;2022-11-21T16:40:57;6.70;95.90
49124;DHT22;48506;48.202;16.274;2022-11-21T16:43:25;6.60;95.90
49124;DHT22;48506;48.202;16.274;2022-11-21T16:45:52;6.60;96.10
49124;DHT22;48506;48.202;16.274;2022-11-21T16:48:21;6.50;96.20
49124;DHT22;48506;48.202;16.274;2022-11-21T16:50:49;6.40;96.20
49124;DHT22;48506;48.202;16.274;2022-11-21T16:53:15;6.40;96.30
49124;DHT22;48506;48.202;16.274;2022-11-21T16:55:42;6.40;96.40
49124;DHT22;48506;48.202;16.274;2022-11-21T16:58:09;6.30;96.60
49124;DHT22;48506;48.202;16.274;2022-11-21T17:00:37;6.30;96.70
49124;DHT22;48506;48.202;16.274;2022-11-21T17:03:04;6.30;96.80
49124;DHT22;48506;48.202;16.274;2022-11-21T17:05:31;6.20;96.80
49124;DHT22;48506;48.202;16.274;2022-11-21T17:07:57;6.20;96.80
49124;DHT22;48506;48.202;16.274;2022-11-21T17:10:23;6.20;96.70
49124;DHT22;48506;48.202;16.274;2022-11-21T17:12:52;6.10;96.90
49124;DHT22;48506;48.202;16.274;2022-11-21T17:15:19;6.10;96.90
49124;DHT22;48506;48.202;16.274;2022-11-21T17:17:46;6.00;96.80
49124;DHT22;48506;48.202;16.274;2022-11-21T17:20:12;6.00;96.90
49124;DHT22;48506;48.202;16.274;2022-11-21T17:22:39;5.90;96.90
49124;DHT22;48506;48.202;16.274;2022-11-21T17:25:05;5.90;96.90
49124;DHT22;48506;48.202;16.274;2022-11-21T17:27:32;5.80;97.00
49124;DHT22;48506;48.202;16.274;2022-11-21T17:29:59;5.80;97.30
49124;DHT22;48506;48.202;16.274;2022-11-21T17:32:25;5.70;97.50
49124;DHT22;48506;48.202;16.274;2022-11-21T17:34:51;5.70;97.70
49124;DHT22;48506;48.202;16.274;2022-11-21T17:37:18;5.70;97.70
49124;DHT22;48506;48.202;16.274;2022-11-21T17:39:45;5.70;97.70
49124;DHT22;48506;48.202;16.274;2022-11-21T17:42:12;5.70;97.70
49124;DHT22;48506;48.202;16.274;2022-11-21T17:44:39;5.70;97.70
49124;DHT22;48506;48.202;16.274;2022-11-21T17:47:05;5.70;97.70